Ride Results

Lake Manchester (28-06-2014)
Ride distance: 80.0 km

Outcomes - Lake Manchester (28-06-2014)
Division No. of Entries Retired / DNE Completed Withdrawn Ineligible V/O Percentage Completed
HW 9 - 9 - - - 100.00%
MW 17 - 11 2 - 4 64.71%
LW 13 - 12 - - 1 92.31%
JN 10 - 8 - - 2 80.00%
Totals 49 - 40 2 - 7 81.63%
Results - Lake Manchester (28-06-2014)
No. Rider Horse Place Time Leg Speeds Total
Km/Hr
H/R bpm
Heavyweight
31 Jagaran Hale Merlin 1 5:25:00 17.6, 16.0, 10.7 14.77 30, 41, 42, 47 (Avg:43)
8 Greg Lyon Chingford Just Dreaming 1 (BC) 5:25:00 16.9, 14.4, 12.4 14.77 29, 43, 46, 48 (Avg:45)
46 Paul Roosen Greywood Magenta 3 6:06:00 11.7, 13.5, 15.3 13.11 33, 44, 49, 46 (Avg:46)
35 Gerard Bou Sadaf Wa Azeem 4 6:50:00 13.6, 13.5, 8.2 11.71 40, 49, 51, 55 (Avg:51)
39 Michael Shaw Bellabin 4 6:50:00 13.6, 13.5, 8.2 11.71 43, 45, 47, 55 (Avg:49)
28 Gregg Fields Dunwingeri Jasim 6 7:02:00 11.7, 11.1, 11.1 11.37 36, 45, 48, 44 (Avg:45)
13 Stan Zischke Prince Dominant 7 7:46:00 10.3, 11.0, 9.3 10.30 34, 45, 46, 45 (Avg:45)
21 Bob Rose Xanadu Mecca 8 8:24:00 9.6, 9.0, 9.9 9.52 43, 47, 50, 48 (Avg:48)
16 Doug Dart Cameo Moon River 9 8:53:00 9.5, 8.6, 8.6 9.01 35, 41, 48, 44 (Avg:44)
Middleweight
4 Simone Krahnen Ardai 1 (BC) 4:59:00 17.2, 16.3, 14.1 16.05 35, 46, 42, 48 (Avg:45)
24 Sabrina Stephens Cameo Silver Bellz 2 5:39:00 16.6, 12.6, 13.0 14.16 33, 47, 51, 52 (Avg:50)
36 Michael Combe Nasr 3 6:50:00 13.6, 13.5, 8.2 11.71 36, 45, 46, 48 (Avg:46)
40 Caroline Fitzgerald Lanamere Kudos 4 7:00:30 11.8, 11.0, 11.1 11.41 33, 48, 48, 49 (Avg:48)
6 Liz Kirk Dunwingeri Aasalah 5 7:06:00 11.8, 11.9, 9.7 11.27 34, 44, 48, 48 (Avg:46)
42 Leanne McLaughlin Ramalea Petria 6 8:00:00 10.5, 9.5, 9.6 10.00 30, 48, 51, 52 (Avg:50)
9 Lorraine Ternouth Dunwingeri Zaza 6 8:00:00 10.5, 9.5, 9.6 10.00 36, 41, 52, 52 (Avg:48)
34 Graysen Clarke Gray-Gun Solitary Rose 8 8:00:30 10.1, 9.7, 10.2 9.99 26, 43, 49, 53 (Avg:48)
45 Billie Barron Lollita 9 8:13:00 10.3, 9.4, 9.2 9.74 24, 38, 45, 45 (Avg:42)
48 Rhys Rayner Larabi Sid Simba'ar 10 8:16:00 9.8, 10.2, 8.8 9.68 35, 42, 53, 52 (Avg:49)
50 Samantha Yates Summervale Storm 10 8:16:00 9.8, 10.2, 8.8 9.68 38, 41, 47, 45 (Avg:44)
47 Ian Davidson Heartfire Hafiz Lame L3 0:00:00 9.8, 10.2, 8.8 - 32, 38, 44, 52 (Avg:44)
25 Stephen Gray Kasbah Kid Heart Rate L3 0:00:00 10.8, 12.2, 10.9 - 31, 46, 51, 63 (Avg:53)
18 Sue Gurtner Ya-Bint-Al-Hawa Lame L2 0:00:00 12.6, 10.9 - 37, 50, 50 (Avg:50)
23 Gina Matthews Melcot Emerald Withdrawn L2 0:00:00 - - 32, 41, 47 (Avg:44)
22 Julie Mohi Arabiana Banama Withdrawn L2 0:00:00 - - 34, 45, 50 (Avg:47)
19 Terry Davies Xanadu Trojan Lame L1 0:00:00 12.1 - 30, 32 (Avg:32)
Lightweight
2 Erin Krahnen Iskah 1 (BC) 4:59:00 16.4, 16.5, 14.8 16.05 30, 36, 48, 42 (Avg:42)
30 Bianca Porter Phox KEI 2 5:25:00 17.6, 16.0, 10.7 14.77 40, 49, 53, 55 (Avg:52)
7 Racheal Townsend Chingford Blaze Away 2 5:25:00 16.9, 14.4, 12.4 14.77 27, 39, 43, 49 (Avg:43)
43 Clare Fleming Flemingo Makkaddie 4 5:39:00 15.2, 13.9, 12.9 14.16 39, 50, 53, 51 (Avg:51)
33 Margaret Harvey Banbra Tamara 5 6:49:00 13.5, 11.5, 9.7 11.74 36, 42, 38, 42 (Avg:40)
49 Deleni Walters Brookleigh Bailey 6 7:00:00 10.9, 11.6, 11.8 11.43 39, 48, 48, 44 (Avg:46)
27 Karen Fields Lasca's Legacy 7 7:02:00 11.7, 11.1, 11.1 11.37 31, 44, 47, 48 (Avg:46)
10 Virginia Dale Jum Jum Spirit 8 7:13:00 11.5, 11.4, 10.0 11.09 40, 37, 50, 57 (Avg:48)
32 Claire McManus Cameo Graziella 9 7:38:00 11.1, 10.3, 9.6 10.48 34, 45, 47, 51 (Avg:47)
29 Cindy Holden San Juan 10 7:58:00 10.8, 8.9, 10.4 10.04 40, 48, 51, 58 (Avg:52)
12 Carol Kite Holly Hill's Billy Boy 11 8:24:00 10.1, 9.1, 9.0 9.52 30, 42, 47, 38 (Avg:42)
17 Meleita Dart Emblazon 12 8:53:00 9.5, 8.6, 8.6 9.01 35, 45, 49, 49 (Avg:47)
44 Ruth White Cameo Favorita Lame L2 0:00:00 14.5, 9.0 - 30, 45, 41 (Avg:43)
Junior
3 Connor Krahnen La Battista Shadow Fax 1 (BC) 4:59:00 17.2, 16.3, 14.1 16.05 35, 44, 45, 45 (Avg:44)
26 Amber Weale Dunbar Coco Chanel 2 6:27:00 11.6, 12.6, 13.4 12.40 28, 36, 42, 45 (Avg:41)
41 Timothy Fitzgerald Beaudacious te 3 7:00:30 11.8, 11.0, 11.1 11.41 26, 45, 40, 53 (Avg:46)
5 Anita Maggacis Thalara 4 8:08:00 9.5, 9.8, 10.3 9.84 40, 50, 53, 45 (Avg:49)
15 Jess Kennedy Shannonwood Bree 5 8:10:00 10.3, 9.2, 9.7 9.80 36, 39, 49, 50 (Avg:46)
14 Finn Mansbridge Shannonwood Energex 5 8:10:00 10.3, 9.2, 9.7 9.80 33, 42, 44, 47 (Avg:44)
37 Ellie Kreicbergs Briallyn Kirra Bint Zanir 7 8:21:00 9.6, 9.3, 9.8 9.58 39, 45, 46, 49 (Avg:46)
52 Tissi McKay Follydown Gai Emerald 7 8:21:00 9.6, 9.3, 9.8 9.58 38, 46, 45, 45 (Avg:45)
38 Tahlia Franke Dardanga Fingal Lame L1 0:00:00 17.6 - 36, 50 (Avg:50)
1 Colleen Krahnen Glen Gannon Serenity Lame L1 0:00:00 10.7 - 30, 45 (Avg:45)